Time;durP1;ratioP1;P1;durP2;ratioP2;P2;SDS_P1;SDS_P2;PMS_P1;PMS_P2;Temp;Humidity;BMP_temperature;BMP_pressure;BME280_temperature;BME280_humidity;BME280_pressure;Samples;Min_cycle;Max_cycle;Signal;HPM_P1;HPM_P2
2021/10/14 00:01:56;;;;;;;8.93;6.35;;;5.80;41.50;;;;;;5079009;28;21056;-67
2021/10/14 00:04:29;;;;;;;8.40;6.57;;;5.80;41.50;;;;;;5072706;28;20044;-67
2021/10/14 00:06:57;;;;;;;10.82;6.55;;;5.80;40.80;;;;;;5084238;28;20113;-67
2021/10/14 00:09:30;;;;;;;10.80;6.38;;;5.80;40.70;;;;;;5084869;28;20036;-67
2021/10/14 00:12:01;;;;;;;9.07;6.22;;;5.80;40.50;;;;;;5078713;28;20045;-67
2021/10/14 00:14:36;;;;;;;8.30;6.20;;;5.80;40.20;;;;;;5080289;28;20053;-69
2021/10/14 00:17:08;;;;;;;6.82;5.68;;;5.80;39.70;;;;;;5084940;28;20056;-69
2021/10/14 00:19:41;;;;;;;6.90;5.93;;;5.80;38.70;;;;;;5060185;28;20063;-69
2021/10/14 00:22:09;;;;;;;8.02;5.53;;;5.80;38.70;;;;;;5080460;28;20412;-69
2021/10/14 00:24:38;;;;;;;10.57;6.30;;;5.80;38.70;;;;;;5078284;28;20515;-68
2021/10/14 00:27:06;;;;;;;10.15;6.03;;;5.80;38.80;;;;;;5077080;28;20128;-68
2021/10/14 00:29:36;;;;;;;9.60;6.30;;;5.70;38.70;;;;;;5085706;28;20076;-67
2021/10/14 00:32:05;;;;;;;11.55;5.93;;;5.70;38.80;;;;;;5078619;28;20143;-68
2021/10/14 00:34:37;;;;;;;6.88;5.78;;;5.60;39.00;;;;;;5077013;28;20052;-67
2021/10/14 00:37:07;;;;;;;7.75;6.03;;;5.50;39.20;;;;;;5080578;28;20106;-67
2021/10/14 00:39:35;;;;;;;9.05;5.97;;;5.50;39.30;;;;;;5077415;28;20054;-68
2021/10/14 00:42:03;;;;;;;7.82;5.80;;;5.50;39.30;;;;;;5080608;28;20120;-67
2021/10/14 00:44:43;;;;;;;9.73;6.03;;;5.40;39.20;;;;;;5083206;28;20047;-67
2021/10/14 00:47:18;;;;;;;8.93;6.05;;;5.40;39.70;;;;;;5075726;28;20129;-67
2021/10/14 00:49:48;;;;;;;7.68;6.00;;;5.40;40.20;;;;;;5084330;28;20401;-67
2021/10/14 00:52:21;;;;;;;6.80;5.10;;;5.40;40.30;;;;;;5081922;28;20163;-68
2021/10/14 00:54:51;;;;;;;7.80;5.72;;;5.30;40.60;;;;;;5074090;28;20395;-67
2021/10/14 00:57:22;;;;;;;11.00;5.63;;;5.20;41.10;;;;;;5084263;28;20041;-68
2021/10/14 00:59:53;;;;;;;9.10;5.63;;;5.20;41.30;;;;;;5084678;28;20044;-69
2021/10/14 01:02:26;;;;;;;9.77;5.65;;;5.30;40.80;;;;;;5074195;28;20097;-68
2021/10/14 01:04:55;;;;;;;9.95;5.80;;;5.30;40.20;;;;;;5081446;28;20555;-68
2021/10/14 01:07:25;;;;;;;9.13;5.70;;;5.30;39.80;;;;;;5082056;28;20123;-68
2021/10/14 01:09:53;;;;;;;6.90;5.82;;;5.40;39.20;;;;;;5078715;28;20630;-68
2021/10/14 01:12:23;;;;;;;9.48;6.03;;;5.30;38.30;;;;;;5085359;28;20462;-68
2021/10/14 01:14:55;;;;;;;9.00;5.63;;;5.30;38.50;;;;;;5081923;28;20488;-68
2021/10/14 01:17:23;;;;;;;9.23;5.47;;;5.30;38.80;;;;;;5076532;28;20113;-68
2021/10/14 01:19:55;;;;;;;8.35;4.97;;;5.20;38.80;;;;;;5079960;28;20044;-68
2021/10/14 01:22:24;;;;;;;9.77;5.20;;;5.20;39.20;;;;;;5079949;28;20050;-68
2021/10/14 01:24:52;;;;;;;8.52;5.05;;;5.30;39.50;;;;;;5073560;28;20044;-69
2021/10/14 01:27:27;;;;;;;9.70;5.78;;;5.30;39.50;;;;;;5085897;28;20459;-68
2021/10/14 01:29:55;;;;;;;7.97;5.07;;;5.30;38.00;;;;;;5075017;28;20514;-68
2021/10/14 01:32:23;;;;;;;11.18;5.45;;;5.40;38.10;;;;;;5080360;28;20040;-68
2021/10/14 01:34:56;;;;;;;9.57;5.85;;;5.40;37.40;;;;;;5078583;28;20059;-68
2021/10/14 01:37:24;;;;;;;10.52;5.60;;;5.30;37.60;;;;;;5076577;28;20070;-68
2021/10/14 01:39:52;;;;;;;6.72;5.03;;;5.20;37.70;;;;;;5079615;28;20047;-68
2021/10/14 01:42:20;;;;;;;8.27;5.35;;;5.20;38.70;;;;;;5077464;28;20113;-69
2021/10/14 01:44:49;;;;;;;10.57;5.53;;;5.20;39.30;;;;;;5074192;28;20060;-68
2021/10/14 01:47:17;;;;;;;8.70;5.35;;;5.10;39.00;;;;;;5090368;28;20071;-68
2021/10/14 01:49:45;;;;;;;9.27;5.50;;;5.00;40.20;;;;;;5076431;28;20115;-68
2021/10/14 01:52:17;;;;;;;11.98;5.40;;;5.00;40.30;;;;;;5075593;28;20127;-69
2021/10/14 01:54:50;;;;;;;8.48;5.90;;;5.10;39.80;;;;;;5079095;28;20099;-68
2021/10/14 01:57:18;;;;;;;7.47;4.97;;;5.10;38.50;;;;;;5082477;28;20075;-68
2021/10/14 01:59:46;;;;;;;9.65;5.47;;;5.20;38.00;;;;;;5076190;28;20098;-68
2021/10/14 02:02:14;;;;;;;9.10;5.70;;;5.20;37.60;;;;;;5085605;28;20138;-68
2021/10/14 02:04:42;;;;;;;7.72;5.40;;;5.20;36.80;;;;;;5071444;28;20490;-68
2021/10/14 02:07:10;;;;;;;9.68;5.65;;;5.20;36.60;;;;;;5081982;28;20090;-68
2021/10/14 02:09:39;;;;;;;11.23;5.20;;;5.20;36.60;;;;;;5076572;28;20048;-68
2021/10/14 02:12:11;;;;;;;7.65;5.18;;;5.20;36.80;;;;;;5075812;28;20049;-69
2021/10/14 02:14:40;;;;;;;10.73;5.35;;;5.20;36.20;;;;;;5077686;28;20141;-68
2021/10/14 02:17:10;;;;;;;7.45;5.60;;;5.20;36.90;;;;;;5080665;28;20048;-68
2021/10/14 02:19:38;;;;;;;7.50;5.43;;;5.10;37.00;;;;;;5074417;28;20049;-69
2021/10/14 02:22:06;;;;;;;10.32;5.03;;;5.10;36.70;;;;;;5086359;28;20056;-68
2021/10/14 02:24:38;;;;;;;11.73;5.65;;;5.10;36.20;;;;;;5075727;28;20044;-69
2021/10/14 02:27:10;;;;;;;7.88;5.00;;;5.10;36.40;;;;;;5080285;28;20092;-69
2021/10/14 02:29:38;;;;;;;9.00;5.75;;;5.10;36.80;;;;;;5086351;28;20055;-69
2021/10/14 02:32:06;;;;;;;9.80;5.00;;;5.00;37.00;;;;;;5080450;28;20465;-68
2021/10/14 02:34:34;;;;;;;7.95;5.05;;;5.00;37.40;;;;;;5081639;28;20110;-68
2021/10/14 02:37:02;;;;;;;9.77;5.32;;;5.00;37.90;;;;;;5082109;28;20056;-68
2021/10/14 02:39:34;;;;;;;10.23;5.75;;;5.00;38.30;;;;;;5079619;28;20050;-68
2021/10/14 02:42:04;;;;;;;7.20;5.20;;;5.00;38.50;;;;;;5087893;28;20554;-68
2021/10/14 02:44:32;;;;;;;7.78;5.63;;;5.10;38.90;;;;;;5081149;28;20109;-68
2021/10/14 02:47:00;;;;;;;9.60;5.82;;;5.10;38.80;;;;;;5076857;28;20056;-69
2021/10/14 02:49:29;;;;;;;11.05;6.03;;;5.10;39.70;;;;;;5089242;28;20579;-68
2021/10/14 02:51:57;;;;;;;9.65;6.60;;;5.00;40.80;;;;;;5080469;28;20093;-68
2021/10/14 02:54:27;;;;;;;11.43;6.72;;;5.10;41.40;;;;;;5077860;28;20177;-68
2021/10/14 02:56:55;;;;;;;8.18;6.05;;;5.10;41.90;;;;;;5086990;28;20055;-68
2021/10/14 02:59:25;;;;;;;10.90;6.78;;;5.10;42.20;;;;;;5081096;28;20498;-68
2021/10/14 03:01:53;;;;;;;12.27;7.75;;;5.10;42.30;;;;;;5082113;28;20041;-68
2021/10/14 03:04:23;;;;;;;12.25;7.57;;;5.10;42.30;;;;;;5080934;28;20199;-67
2021/10/14 03:06:54;;;;;;;12.95;8.55;;;5.20;42.50;;;;;;5076822;28;20472;-67
2021/10/14 03:09:22;;;;;;;14.50;7.55;;;5.20;42.80;;;;;;5089675;28;20044;-68
2021/10/14 03:11:50;;;;;;;15.23;8.57;;;5.20;43.10;;;;;;5083102;28;20050;-67
2021/10/14 03:14:20;;;;;;;18.02;9.38;;;5.30;43.00;;;;;;5078264;28;20031;-68
2021/10/14 03:16:49;;;;;;;15.70;9.52;;;5.30;43.00;;;;;;5080634;28;20519;-69
2021/10/14 03:19:17;;;;;;;13.02;9.35;;;5.30;43.60;;;;;;5082164;28;20134;-68
2021/10/14 03:21:46;;;;;;;14.48;8.65;;;5.40;43.60;;;;;;5078276;28;20486;-68
2021/10/14 03:24:14;;;;;;;16.58;9.57;;;5.30;42.90;;;;;;5084568;28;20076;-68
2021/10/14 03:26:45;;;;;;;14.38;8.98;;;5.40;43.10;;;;;;5077718;28;20127;-68
2021/10/14 03:29:15;;;;;;;13.05;8.13;;;5.30;43.60;;;;;;5078650;28;20154;-68
2021/10/14 03:31:44;;;;;;;13.32;7.95;;;5.30;43.60;;;;;;5083886;28;20047;-66
2021/10/14 03:34:14;;;;;;;13.60;9.13;;;5.30;43.70;;;;;;5078407;28;20178;-68
2021/10/14 03:36:43;;;;;;;12.30;9.05;;;5.30;44.10;;;;;;5081561;28;20036;-68
2021/10/14 03:39:12;;;;;;;15.63;9.25;;;5.20;44.30;;;;;;5083480;28;20044;-68
2021/10/14 03:41:42;;;;;;;15.95;9.05;;;5.20;44.50;;;;;;5077260;28;20056;-68
2021/10/14 03:44:13;;;;;;;14.85;10.32;;;5.20;44.80;;;;;;5087125;28;20040;-69
2021/10/14 03:46:42;;;;;;;13.68;8.82;;;5.20;45.30;;;;;;5079559;28;20454;-68
2021/10/14 03:49:14;;;;;;;17.38;9.38;;;5.20;45.30;;;;;;5081217;28;20192;-68
2021/10/14 03:51:46;;;;;;;14.63;8.77;;;5.20;45.00;;;;;;5080826;28;20101;-68
2021/10/14 03:54:14;;;;;;;14.68;8.77;;;5.10;45.40;;;;;;5079774;28;20040;-68
2021/10/14 03:56:42;;;;;;;17.45;8.77;;;5.00;45.30;;;;;;5077409;28;20571;-68
2021/10/14 03:59:16;;;;;;;17.27;9.77;;;5.10;45.60;;;;;;5087456;28;20045;-68
2021/10/14 04:01:44;;;;;;;13.55;9.18;;;5.10;45.80;;;;;;5077157;28;20093;-69
2021/10/14 04:04:13;;;;;;;13.05;8.40;;;5.20;45.40;;;;;;5077937;28;20685;-69
2021/10/14 04:06:41;;;;;;;12.48;8.30;;;5.20;45.20;;;;;;5082042;28;20483;-68
2021/10/14 04:09:09;;;;;;;14.38;9.73;;;5.20;44.90;;;;;;5074538;28;20083;-69
2021/10/14 04:11:37;;;;;;;13.65;8.32;;;5.20;44.70;;;;;;5082622;28;20063;-68
2021/10/14 04:14:06;;;;;;;12.77;8.85;;;5.10;44.00;;;;;;5077938;28;20385;-68
2021/10/14 04:16:34;;;;;;;11.18;8.45;;;5.10;44.30;;;;;;5076098;28;20151;-68
2021/10/14 04:19:06;;;;;;;15.52;8.40;;;5.20;44.50;;;;;;5081382;28;20066;-68
2021/10/14 04:21:37;;;;;;;11.80;8.57;;;5.20;43.80;;;;;;5072700;28;20072;-68
2021/10/14 04:24:06;;;;;;;11.55;7.88;;;5.20;45.00;;;;;;5077343;28;20119;-68
2021/10/14 04:26:36;;;;;;;12.80;8.25;;;5.20;44.00;;;;;;5081103;28;20043;-68
2021/10/14 04:29:05;;;;;;;12.38;8.02;;;5.30;43.40;;;;;;5076194;28;20044;-68
2021/10/14 04:31:34;;;;;;;11.57;8.82;;;5.20;42.80;;;;;;5081052;28;20127;-68
2021/10/14 04:34:03;;;;;;;12.70;8.07;;;5.30;43.20;;;;;;5082439;28;20101;-68
2021/10/14 04:36:31;;;;;;;15.95;7.78;;;5.30;42.50;;;;;;5074506;28;20511;-68
2021/10/14 04:39:05;;;;;;;14.30;7.93;;;5.30;42.50;;;;;;5081486;28;20051;-68
2021/10/14 04:41:38;;;;;;;13.90;8.05;;;5.30;42.50;;;;;;5078783;28;20047;-68
2021/10/14 04:44:06;;;;;;;11.32;7.82;;;5.30;42.50;;;;;;5073394;28;20064;-68
2021/10/14 04:46:34;;;;;;;13.07;8.30;;;5.30;42.60;;;;;;5084586;28;20040;-68
2021/10/14 04:49:05;;;;;;;11.75;8.02;;;5.40;42.60;;;;;;5084700;28;20143;-69
2021/10/14 04:51:33;;;;;;;14.35;7.68;;;5.40;42.50;;;;;;5076055;28;20151;-68
2021/10/14 04:54:01;;;;;;;14.45;8.05;;;5.40;42.40;;;;;;5078801;28;20097;-68
2021/10/14 04:56:31;;;;;;;14.32;7.20;;;5.40;42.30;;;;;;5077266;28;20135;-67
2021/10/14 04:59:03;;;;;;;12.45;7.38;;;5.50;41.70;;;;;;5072705;28;20076;-67
2021/10/14 05:01:34;;;;;;;10.07;6.47;;;5.40;41.20;;;;;;5079808;28;20043;-68
2021/10/14 05:04:02;;;;;;;12.05;6.90;;;5.50;41.30;;;;;;5077655;28;20041;-68
2021/10/14 05:06:33;;;;;;;13.60;6.53;;;5.50;41.30;;;;;;5071342;28;20052;-68
2021/10/14 05:09:05;;;;;;;12.40;6.72;;;5.50;40.80;;;;;;5086135;28;20044;-68
2021/10/14 05:11:36;;;;;;;12.27;6.25;;;5.40;39.40;;;;;;5075624;28;20048;-66
2021/10/14 05:14:06;;;;;;;11.68;6.65;;;5.50;40.10;;;;;;5076406;28;20530;-68
2021/10/14 05:16:37;;;;;;;9.48;5.80;;;5.50;39.80;;;;;;5080452;28;20036;-68
2021/10/14 05:19:05;;;;;;;10.85;5.85;;;5.60;39.10;;;;;;5077398;28;20060;-68
2021/10/14 05:21:34;;;;;;;8.82;5.78;;;5.60;38.50;;;;;;5081382;28;20063;-68
2021/10/14 05:24:02;;;;;;;8.88;5.80;;;5.70;38.50;;;;;;5083050;28;20075;-68
2021/10/14 05:26:32;;;;;;;8.88;5.97;;;5.70;37.90;;;;;;5073507;28;20054;-68
2021/10/14 05:29:01;;;;;;;10.15;6.18;;;5.60;36.70;;;;;;5082518;28;20055;-68
2021/10/14 05:31:30;;;;;;;8.95;5.65;;;5.60;37.50;;;;;;5072945;28;20056;-67
2021/10/14 05:33:58;;;;;;;8.80;5.07;;;5.70;37.50;;;;;;5075699;28;20049;-68
2021/10/14 05:36:28;;;;;;;10.68;5.32;;;5.70;37.50;;;;;;5074877;28;20389;-68
2021/10/14 05:38:56;;;;;;;10.20;5.63;;;5.70;37.40;;;;;;5076383;28;20078;-68
2021/10/14 05:41:24;;;;;;;8.55;5.85;;;5.70;36.60;;;;;;5074876;28;20077;-67
2021/10/14 05:43:52;;;;;;;10.50;5.70;;;5.60;36.50;;;;;;5075267;28;20491;-68
2021/10/14 05:46:22;;;;;;;9.77;6.00;;;5.60;36.70;;;;;;5074184;28;20098;-68
2021/10/14 05:48:53;;;;;;;9.77;5.85;;;5.50;36.80;;;;;;5073160;28;20103;-67
2021/10/14 05:51:21;;;;;;;10.13;5.82;;;5.60;37.50;;;;;;5075918;28;20361;-67
2021/10/14 05:53:49;;;;;;;10.68;5.88;;;5.60;36.60;;;;;;5073921;28;20064;-68
2021/10/14 05:56:24;;;;;;;11.88;6.60;;;5.60;37.00;;;;;;5077363;28;20106;-68
2021/10/14 05:58:56;;;;;;;12.15;5.80;;;5.60;37.40;;;;;;5077663;28;20415;-68
2021/10/14 06:01:26;;;;;;;10.13;6.05;;;5.60;36.80;;;;;;5075326;28;20040;-67
2021/10/14 06:03:55;;;;;;;15.32;6.82;;;5.60;36.70;;;;;;5078945;28;20650;-67
2021/10/14 06:06:24;;;;;;;12.20;6.40;;;5.60;35.90;;;;;;5076508;28;20044;-67
2021/10/14 06:08:55;;;;;;;8.65;5.53;;;5.70;35.80;;;;;;5076996;28;20044;-68
2021/10/14 06:11:23;;;;;;;8.75;5.60;;;5.70;35.40;;;;;;5083113;28;20083;-68
2021/10/14 06:13:51;;;;;;;13.10;6.50;;;5.80;35.40;;;;;;5075494;28;20051;-67
2021/10/14 06:16:19;;;;;;;18.38;6.13;;;5.80;34.90;;;;;;5074977;28;20047;-68
2021/10/14 06:18:51;;;;;;;10.95;6.15;;;5.80;34.50;;;;;;5078170;28;20036;-68
2021/10/14 06:21:19;;;;;;;10.00;6.30;;;5.80;34.50;;;;;;5075480;28;20059;-68
2021/10/14 06:23:47;;;;;;;10.95;6.07;;;5.90;33.20;;;;;;5075632;28;20097;-68
2021/10/14 06:26:15;;;;;;;13.02;6.90;;;6.00;32.70;;;;;;5076464;28;20055;-66
2021/10/14 06:28:44;;;;;;;10.27;6.40;;;6.10;32.60;;;;;;5072998;28;20041;-67
2021/10/14 06:31:12;;;;;;;12.00;7.05;;;6.10;31.30;;;;;;5073537;28;20536;-67
2021/10/14 06:33:43;;;;;;;13.57;7.22;;;6.20;31.70;;;;;;5075059;28;20422;-68
2021/10/14 06:36:13;;;;;;;28.45;13.75;;;6.20;30.50;;;;;;5073881;28;20147;-67
2021/10/14 06:38:41;;;;;;;15.68;7.22;;;6.30;30.60;;;;;;5079146;28;20143;-68
2021/10/14 06:41:13;;;;;;;14.15;7.40;;;6.40;29.90;;;;;;5084060;28;20044;-69
2021/10/14 06:43:41;;;;;;;11.55;7.15;;;6.40;29.00;;;;;;5080463;28;20064;-68
2021/10/14 06:46:12;;;;;;;14.35;7.95;;;6.50;28.30;;;;;;5080318;28;20043;-68
2021/10/14 06:48:40;;;;;;;13.02;7.63;;;6.60;28.90;;;;;;5086456;28;20480;-68
2021/10/14 06:51:13;;;;;;;12.00;7.68;;;6.60;27.50;;;;;;5084391;28;20072;-68
2021/10/14 06:53:41;;;;;;;14.55;8.48;;;6.70;27.50;;;;;;5081137;28;20039;-68
2021/10/14 06:56:09;;;;;;;11.23;7.82;;;6.70;27.50;;;;;;5080206;28;20048;-67
2021/10/14 06:58:37;;;;;;;14.95;7.93;;;6.60;28.10;;;;;;5076749;28;20078;-67
2021/10/14 07:01:06;;;;;;;12.73;7.28;;;6.60;27.90;;;;;;5081137;28;20044;-67
2021/10/14 07:03:39;;;;;;;14.02;8.57;;;6.80;27.90;;;;;;5085570;28;20408;-69
2021/10/14 07:06:09;;;;;;;13.48;7.72;;;6.90;27.70;;;;;;5075067;28;20130;-67
2021/10/14 07:08:38;;;;;;;12.63;8.20;;;6.70;26.20;;;;;;5087141;28;20041;-68
2021/10/14 07:11:08;;;;;;;15.60;8.02;;;6.90;27.60;;;;;;5085821;28;20440;-68
2021/10/14 07:13:36;;;;;;;12.50;7.57;;;6.90;26.10;;;;;;5076411;28;20033;-67
2021/10/14 07:16:05;;;;;;;15.27;8.05;;;7.00;25.20;;;;;;5081350;28;20040;-68
2021/10/14 07:18:36;;;;;;;13.27;7.78;;;7.10;26.50;;;;;;5079819;28;20101;-67
2021/10/14 07:21:08;;;;;;;18.90;8.63;;;7.10;24.40;;;;;;5078980;28;20071;-67
2021/10/14 07:23:37;;;;;;;14.18;8.82;;;7.30;24.50;;;;;;5083760;28;20502;-67
2021/10/14 07:26:08;;;;;;;21.38;8.07;;;7.30;24.00;;;;;;5081055;28;20439;-68
2021/10/14 07:28:38;;;;;;;14.02;8.23;;;7.40;23.40;;;;;;5076640;28;20059;-68
2021/10/14 07:31:10;;;;;;;14.07;8.02;;;7.40;23.60;;;;;;5089635;28;20040;-67
2021/10/14 07:33:38;;;;;;;12.73;8.20;;;7.50;22.90;;;;;;5080313;28;20032;-68
2021/10/14 07:36:07;;;;;;;20.25;8.00;;;7.70;22.40;;;;;;5081258;28;20041;-68
2021/10/14 07:38:35;;;;;;;15.65;7.70;;;7.60;22.40;;;;;;5085904;28;20362;-67
2021/10/14 07:41:05;;;;;;;13.65;7.95;;;7.60;22.50;;;;;;5077632;28;20044;-68
2021/10/14 07:43:37;;;;;;;;;;;7.60;21.30;;;;;;5080246;28;20506;-68
2021/10/14 07:46:08;;;;;;;15.23;7.28;;;7.80;21.40;;;;;;5081686;28;19932;-68
2021/10/14 07:48:38;;;;;;;11.68;6.45;;;7.90;20.90;;;;;;5073228;28;20036;-68
2021/10/14 07:51:07;;;;;;;13.38;7.03;;;7.90;19.20;;;;;;5088099;28;20303;-67
2021/10/14 07:53:35;;;;;;;11.60;7.10;;;8.10;18.60;;;;;;5084771;28;20047;-67
2021/10/14 07:56:05;;;;;;;10.18;6.55;;;8.30;18.20;;;;;;5075431;28;20136;-67
2021/10/14 07:58:36;;;;;;;16.70;6.88;;;8.30;18.10;;;;;;5085787;28;20052;-68
2021/10/14 08:01:11;;;;;;;14.43;6.55;;;8.30;18.30;;;;;;5082476;28;20036;-68
2021/10/14 08:03:44;;;;;;;10.57;6.53;;;8.50;15.80;;;;;;5077722;28;20051;-67
2021/10/14 08:06:12;;;;;;;9.20;6.53;;;8.60;14.90;;;;;;5086368;28;20051;-67
2021/10/14 08:08:43;;;;;;;10.85;6.68;;;8.50;15.10;;;;;;5073700;28;20117;-67
2021/10/14 08:11:13;;;;;;;12.30;7.18;;;8.50;15.90;;;;;;5081825;28;20060;-68
2021/10/14 08:13:43;;;;;;;13.18;7.28;;;8.60;14.90;;;;;;5084234;28;20036;-68
2021/10/14 08:16:11;;;;;;;9.77;6.07;;;8.80;13.80;;;;;;5080540;28;20465;-68
2021/10/14 08:18:43;;;;;;;10.60;6.50;;;8.60;12.90;;;;;;5080044;28;20072;-68
2021/10/14 08:21:13;;;;;;;18.58;7.22;;;8.70;13.80;;;;;;5081231;28;20044;-68
2021/10/14 08:23:41;;;;;;;10.35;6.45;;;8.80;13.70;;;;;;5077043;28;20123;-68
2021/10/14 08:26:11;;;;;;;9.98;6.60;;;9.00;11.90;;;;;;5086668;28;20487;-68
2021/10/14 08:28:42;;;;;;;12.18;7.35;;;9.00;11.50;;;;;;5079034;28;20047;-69
2021/10/14 08:31:10;;;;;;;15.75;7.00;;;9.20;11.50;;;;;;5079928;28;20132;-69
2021/10/14 08:33:42;;;;;;;10.20;6.15;;;9.40;9.90;;;;;;5087259;28;20105;-69
2021/10/14 08:36:10;;;;;;;10.77;6.32;;;9.40;10.30;;;;;;5076840;28;20052;-68
2021/10/14 08:38:40;;;;;;;13.77;6.65;;;9.70;8.40;;;;;;5081789;28;20491;-68
2021/10/14 08:41:18;;;;;;;12.80;6.93;;;9.60;6.30;;;;;;5083100;28;20047;-67
2021/10/14 08:43:47;;;;;;;7.47;5.93;;;9.70;7.00;;;;;;5077026;28;20039;-67
2021/10/14 08:46:16;;;;;;;13.40;6.50;;;9.60;6.00;;;;;;5076679;28;20152;-69
2021/10/14 08:48:50;;;;;;;11.40;5.90;;;9.50;7.50;;;;;;5085498;28;20075;-68
2021/10/14 08:51:18;;;;;;;8.05;6.43;;;9.70;6.90;;;;;;5084453;28;20083;-68
2021/10/14 08:53:46;;;;;;;13.10;6.72;;;9.70;6.50;;;;;;5078874;28;20068;-67
2021/10/14 08:56:20;;;;;;;11.35;6.10;;;9.90;6.00;;;;;;5083740;28;20044;-67
2021/10/14 08:58:49;;;;;;;11.68;6.30;;;10.00;5.80;;;;;;5074867;28;20083;-67
2021/10/14 09:01:19;;;;;;;12.63;6.32;;;10.00;4.50;;;;;;5083506;28;20134;-68
2021/10/14 09:03:49;;;;;;;9.82;6.25;;;10.20;5.00;;;;;;5082216;28;20051;-68
2021/10/14 09:06:19;;;;;;;14.70;5.97;;;10.10;4.10;;;;;;5073789;28;20044;-67
2021/10/14 09:08:53;;;;;;;13.18;6.03;;;10.30;4.30;;;;;;5085399;28;20041;-67
2021/10/14 09:11:27;;;;;;;11.57;6.18;;;10.40;4.20;;;;;;5080173;28;20135;-67
2021/10/14 09:13:57;;;;;;;9.18;5.88;;;10.60;3.50;;;;;;5073508;28;20440;-68
2021/10/14 09:16:31;;;;;;;10.20;5.95;;;10.70;3.10;;;;;;5082718;28;20055;-67
2021/10/14 09:19:12;;;;;;;16.65;7.00;;;10.90;2.00;;;;;;5075949;28;20044;-68
2021/10/14 09:21:43;;;;;;;11.32;6.55;;;11.00;1.30;;;;;;5072767;28;20048;-67
2021/10/14 09:24:27;;;;;;;10.50;6.05;;;10.90;1.00;;;;;;5086904;28;20072;-67
2021/10/14 09:26:58;;;;;;;10.32;5.35;;;11.00;1.00;;;;;;5079500;28;20120;-68
2021/10/14 09:29:29;;;;;;;10.00;5.80;;;11.40;1.00;;;;;;5073183;28;20044;-68
2021/10/14 09:32:01;;;;;;;7.60;5.70;;;11.20;1.00;;;;;;5077346;28;20142;-68
2021/10/14 09:34:37;;;;;;;10.93;5.95;;;11.20;1.00;;;;;;5083647;28;20050;-69
2021/10/14 09:37:31;;;;;;;8.45;6.05;;;11.20;1.00;;;;;;5072867;28;20136;-68
2021/10/14 09:40:09;;;;;;;11.63;5.70;;;11.20;1.00;;;;;;5076528;28;20056;-68
2021/10/14 09:42:52;;;;;;;11.55;6.72;;;11.00;1.00;;;;;;5081972;28;20051;-68
2021/10/14 09:45:24;;;;;;;10.57;5.97;;;11.40;1.00;;;;;;5076491;28;20032;-68
2021/10/14 09:48:09;;;;;;;8.70;5.68;;;11.70;1.00;;;;;;5081053;28;20531;-68
2021/10/14 09:50:40;;;;;;;8.98;5.90;;;11.90;1.00;;;;;;5060524;28;20496;-68
2021/10/14 09:53:11;;;;;;;12.85;6.20;;;11.40;1.00;;;;;;5078406;28;20115;-68
2021/10/14 09:55:43;;;;;;;11.23;5.57;;;11.80;1.00;;;;;;5085337;28;20526;-68
2021/10/14 09:58:18;;;;;;;9.32;6.43;;;12.00;1.00;;;;;;5078876;28;20076;-68
2021/10/14 10:00:48;;;;;;;12.10;5.38;;;11.90;1.00;;;;;;5073040;28;20051;-68
2021/10/14 10:03:18;;;;;;;12.88;5.15;;;11.90;1.00;;;;;;5075637;28;20047;-68
2021/10/14 10:05:47;;;;;;;8.32;5.70;;;12.10;1.00;;;;;;5077745;28;20218;-68
2021/10/14 10:08:26;;;;;;;7.50;5.18;;;12.30;1.00;;;;;;5074817;28;20906;-67
2021/10/14 10:11:10;;;;;;;8.75;5.60;;;12.50;1.00;;;;;;5085533;28;20040;-68
2021/10/14 10:13:49;;;;;;;10.98;4.72;;;12.60;1.00;;;;;;5083395;28;20039;-69
2021/10/14 10:16:21;;;;;;;5.47;4.25;;;12.70;1.00;;;;;;5073985;28;20040;-68
2021/10/14 10:18:56;;;;;;;6.05;3.15;;;12.60;1.00;;;;;;5081271;28;20040;-69
2021/10/14 10:21:52;;;;;;;5.22;3.50;;;12.90;1.00;;;;;;5080475;28;20050;-67
2021/10/14 10:24:27;;;;;;;;;;;13.00;1.00;;;;;;5040856;28;20483;-68
2021/10/14 10:27:05;;;;;;;5.43;3.15;;;12.90;1.00;;;;;;5075816;28;20383;-69
2021/10/14 10:29:46;;;;;;;6.45;3.47;;;12.80;1.00;;;;;;5084577;28;20127;-67
2021/10/14 10:32:24;;;;;;;5.13;2.75;;;12.70;1.00;;;;;;5081951;28;20473;-68
2021/10/14 10:35:09;;;;;;;3.28;2.88;;;12.80;1.00;;;;;;5074430;28;20063;-66
2021/10/14 10:37:52;;;;;;;7.82;3.30;;;13.10;1.00;;;;;;5079325;28;20139;-68
2021/10/14 10:40:23;;;;;;;5.97;3.03;;;12.70;1.00;;;;;;5081980;28;20051;-68
2021/10/14 10:42:59;;;;;;;5.85;3.05;;;13.20;1.00;;;;;;5082531;28;20067;-68
2021/10/14 10:45:31;;;;;;;4.32;2.88;;;13.30;1.00;;;;;;5082044;28;20504;-67
2021/10/14 10:48:02;;;;;;;3.13;2.83;;;13.60;1.00;;;;;;5089441;28;20051;-67
2021/10/14 10:50:49;;;;;;;3.25;2.50;;;13.20;1.00;;;;;;5078417;28;20043;-68
2021/10/14 10:53:23;;;;;;;8.40;2.80;;;13.50;1.00;;;;;;5086572;28;20093;-68
2021/10/14 10:55:57;;;;;;;4.78;2.75;;;13.40;1.00;;;;;;5087146;28;20040;-69
2021/10/14 10:58:44;;;;;;;5.80;2.72;;;13.80;1.00;;;;;;5075093;28;20130;-68
2021/10/14 11:01:15;;;;;;;5.40;2.70;;;13.70;1.00;;;;;;5081866;28;20264;-68
2021/10/14 11:03:58;;;;;;;6.63;2.78;;;13.70;1.00;;;;;;5093107;28;20048;-67
2021/10/14 11:06:28;;;;;;;7.07;2.75;;;13.50;1.00;;;;;;5082402;28;20036;-67
2021/10/14 11:09:02;;;;;;;5.18;2.67;;;13.10;1.00;;;;;;5081224;28;20044;-68
2021/10/14 11:11:33;;;;;;;5.78;2.42;;;13.00;1.00;;;;;;5086986;28;20510;-68
2021/10/14 11:14:01;;;;;;;4.65;2.90;;;13.20;1.00;;;;;;5080306;28;20506;-68
2021/10/14 11:16:34;;;;;;;5.78;3.10;;;12.90;1.00;;;;;;5081347;28;20123;-66
2021/10/14 11:19:06;;;;;;;4.72;2.10;;;13.20;1.00;;;;;;5089256;28;20089;-69
2021/10/14 11:21:44;;;;;;;4.00;2.92;;;13.10;1.00;;;;;;5078023;28;20078;-67
2021/10/14 11:24:17;;;;;;;5.95;2.70;;;12.70;1.00;;;;;;5083632;28;20518;-67
2021/10/14 11:26:50;;;;;;;4.32;2.30;;;13.10;1.00;;;;;;5079662;28;20040;-68
2021/10/14 11:29:24;;;;;;;6.13;3.10;;;13.30;1.00;;;;;;5077930;28;20051;-68
2021/10/14 11:32:05;;;;;;;5.65;3.22;;;13.40;1.00;;;;;;5083855;28;20036;-68
2021/10/14 11:34:34;;;;;;;7.70;3.20;;;13.20;1.00;;;;;;5084608;28;20119;-68
2021/10/14 11:37:06;;;;;;;5.72;3.05;;;13.30;1.00;;;;;;5073779;28;20515;-68
2021/10/14 11:39:36;;;;;;;8.68;2.90;;;13.40;1.00;;;;;;5085892;28;20048;-68
2021/10/14 11:42:09;;;;;;;6.32;3.20;;;13.60;1.00;;;;;;5081528;28;20541;-68
2021/10/14 11:44:43;;;;;;;6.25;3.25;;;13.40;1.00;;;;;;5075913;28;20044;-67
2021/10/14 11:47:15;;;;;;;7.30;2.97;;;13.40;1.00;;;;;;5090871;28;20051;-67
2021/10/14 11:49:45;;;;;;;5.10;3.30;;;13.30;1.00;;;;;;5083185;28;20124;-68
2021/10/14 11:52:16;;;;;;;5.78;3.33;;;13.50;1.00;;;;;;5076503;28;20083;-68
2021/10/14 11:54:44;;;;;;;6.47;2.83;;;13.60;1.00;;;;;;5082373;28;20098;-67
2021/10/14 11:57:14;;;;;;;4.13;2.60;;;13.30;1.00;;;;;;5080076;28;20062;-67
2021/10/14 11:59:47;;;;;;;6.55;2.80;;;13.30;1.00;;;;;;5083260;28;20044;-68
2021/10/14 12:02:24;;;;;;;5.20;2.50;;;13.50;1.00;;;;;;5083872;28;20044;-68
2021/10/14 12:04:55;;;;;;;5.82;2.88;;;13.20;1.00;;;;;;5075256;28;20594;-68
2021/10/14 12:07:26;;;;;;;2.65;1.90;;;13.50;1.00;;;;;;5076861;28;20315;-68
2021/10/14 12:09:57;;;;;;;4.97;2.22;;;13.30;1.00;;;;;;5079239;28;20716;-69
2021/10/14 12:12:37;;;;;;;4.75;2.33;;;13.20;1.00;;;;;;5073514;28;20048;-68
2021/10/14 12:15:26;;;;;;;5.45;2.65;;;13.40;1.00;;;;;;5076152;28;20036;-68
2021/10/14 12:18:01;;;;;;;3.95;2.20;;;13.40;1.00;;;;;;5085130;28;20041;-68
2021/10/14 12:20:32;;;;;;;5.50;1.90;;;13.60;1.00;;;;;;5079627;28;20185;-69
2021/10/14 12:23:07;;;;;;;4.90;2.10;;;13.60;1.00;;;;;;5062416;28;20530;-68
2021/10/14 12:25:39;;;;;;;3.72;1.90;;;13.60;1.00;;;;;;5088896;28;20454;-68
2021/10/14 12:28:10;;;;;;;6.63;2.60;;;13.70;1.00;;;;;;5080106;28;20097;-69
2021/10/14 12:30:41;;;;;;;;;;;13.70;1.00;;;;;;5084471;28;20044;-69
2021/10/14 12:33:19;;;;;;;4.85;2.28;;;13.80;1.00;;;;;;5077749;28;19990;-69
2021/10/14 12:35:53;;;;;;;5.80;2.28;;;13.70;1.00;;;;;;5075407;28;20036;-69
2021/10/14 12:38:22;;;;;;;6.97;2.30;;;13.90;1.00;;;;;;5075377;28;20066;-69
2021/10/14 12:41:02;;;;;;;3.85;2.22;;;13.90;1.00;;;;;;5076728;28;20079;-69
2021/10/14 12:43:44;;;;;;;4.07;1.80;;;13.80;1.00;;;;;;5075962;28;20093;-68
2021/10/14 12:46:24;;;;;;;4.68;2.17;;;13.80;1.00;;;;;;5077513;28;20093;-69
2021/10/14 12:49:23;;;;;;;4.38;2.25;;;13.90;1.00;;;;;;5083854;28;20126;-68
2021/10/14 12:51:57;;;;;;;3.08;2.13;;;13.90;1.00;;;;;;5077434;28;20042;-69
2021/10/14 12:54:29;;;;;;;3.83;1.98;;;13.90;1.00;;;;;;5069834;28;20048;-68
2021/10/14 12:57:00;;;;;;;3.80;2.20;;;14.00;1.00;;;;;;5077626;28;20044;-69
2021/10/14 12:59:30;;;;;;;5.00;1.98;;;13.80;1.00;;;;;;5084172;28;20552;-69
2021/10/14 13:02:00;;;;;;;5.25;1.98;;;13.90;1.00;;;;;;5075848;28;20086;-67
2021/10/14 13:04:31;;;;;;;4.07;2.25;;;13.90;1.00;;;;;;5071338;28;20132;-68
2021/10/14 13:07:01;;;;;;;5.43;2.25;;;13.90;1.00;;;;;;5069909;28;20072;-67
2021/10/14 13:09:33;;;;;;;6.05;2.47;;;14.00;1.00;;;;;;5070699;28;20471;-68
2021/10/14 13:12:05;;;;;;;6.50;2.45;;;14.10;1.00;;;;;;5079636;28;20101;-68
2021/10/14 13:14:37;;;;;;;2.00;1.80;;;14.00;1.00;;;;;;5077393;28;20047;-67